createdAt,value
2023-05-04T00:00:48.672Z,101446.13
2023-05-04T00:03:17.181Z,101449.78
2023-05-04T00:05:45.722Z,101440.19
2023-05-04T00:08:15.462Z,101443.13
2023-05-04T00:10:43.870Z,101452.50
2023-05-04T00:13:13.424Z,101449.34
2023-05-04T00:15:42.027Z,101448.88
2023-05-04T00:18:10.496Z,101443.94
2023-05-04T00:20:39.273Z,101449.63
2023-05-04T00:23:07.699Z,101428.03
2023-05-04T00:25:37.423Z,101425.00
2023-05-04T00:28:06.041Z,101433.38
2023-05-04T00:30:34.475Z,101432.56
2023-05-04T00:33:03.075Z,101429.91
2023-05-04T00:35:32.033Z,101435.97
2023-05-04T00:38:00.566Z,101432.31
2023-05-04T00:40:29.062Z,101435.38
2023-05-04T00:42:58.886Z,101299.75
2023-05-04T00:45:27.759Z,101434.59
2023-05-04T00:47:58.125Z,101430.34
2023-05-04T00:50:27.252Z,101431.94
2023-05-04T00:52:57.616Z,101296.78
2023-05-04T00:55:26.287Z,101431.25
2023-05-04T00:57:54.810Z,101428.56
2023-05-04T01:00:25.165Z,101419.09
2023-05-04T01:02:53.899Z,101430.28
2023-05-04T01:05:24.142Z,101425.19
2023-05-04T01:08:00.046Z,101424.44
2023-05-04T01:10:35.700Z,101430.44
2023-05-04T01:13:09.737Z,101431.75
2023-05-04T01:15:40.150Z,101433.94
2023-05-04T01:18:08.738Z,101426.41
2023-05-04T01:20:37.320Z,101435.50
2023-05-04T01:23:07.631Z,101438.69
2023-05-04T01:25:41.487Z,101412.38
2023-05-04T01:28:13.374Z,101447.03
2023-05-04T01:30:46.458Z,101446.31
2023-05-04T01:33:17.659Z,101440.25
2023-05-04T01:35:46.822Z,101438.94
2023-05-04T01:38:17.692Z,101437.59
2023-05-04T01:40:46.160Z,101433.47
2023-05-04T01:43:14.544Z,101434.19
2023-05-04T01:45:43.009Z,101433.34
2023-05-04T01:48:13.944Z,101438.91
2023-05-04T01:50:42.392Z,101436.34
2023-05-04T01:53:11.048Z,101442.66
2023-05-04T01:55:40.849Z,101440.72
2023-05-04T01:58:12.434Z,101443.84
2023-05-04T02:00:40.971Z,101444.06
2023-05-04T02:03:09.824Z,101432.19
2023-05-04T02:05:38.440Z,101434.38
2023-05-04T02:08:07.134Z,101437.28
2023-05-04T02:10:35.621Z,101442.72
2023-05-04T02:13:05.486Z,101440.91
2023-05-04T02:15:34.026Z,101432.41
2023-05-04T02:18:02.380Z,101444.16
2023-05-04T02:20:30.883Z,101445.34
2023-05-04T02:22:59.422Z,101447.28
2023-05-04T02:25:27.839Z,101447.28
2023-05-04T02:27:56.187Z,101447.44
2023-05-04T02:30:26.145Z,101444.16
2023-05-04T02:32:54.723Z,101447.66
2023-05-04T02:35:24.030Z,101444.25
2023-05-04T02:37:52.421Z,101444.72
2023-05-04T02:40:20.875Z,101441.56
2023-05-04T02:42:49.271Z,101439.97
2023-05-04T02:45:18.007Z,101444.94
2023-05-04T02:47:47.931Z,101444.09
2023-05-04T02:50:17.442Z,101436.44
2023-05-04T02:52:45.901Z,101446.59
2023-05-04T02:55:14.371Z,101442.22
2023-05-04T02:57:42.888Z,101438.59
2023-05-04T03:00:12.267Z,101442.38
2023-05-04T03:02:41.150Z,101443.69
2023-05-04T03:05:11.514Z,101438.69
2023-05-04T03:07:39.970Z,101433.59
2023-05-04T03:10:10.194Z,101428.50
2023-05-04T03:12:38.721Z,101429.56
2023-05-04T03:15:08.274Z,101425.47
2023-05-04T03:17:37.891Z,101422.59
2023-05-04T03:20:08.221Z,101431.78
2023-05-04T03:22:38.389Z,101429.22
2023-05-04T03:25:08.383Z,101425.94
2023-05-04T03:27:37.085Z,101425.66
2023-05-04T03:30:06.741Z,101429.31
2023-05-04T03:32:36.427Z,101422.50
2023-05-04T03:35:05.583Z,101417.50
2023-05-04T03:37:33.986Z,101415.06
2023-05-04T03:40:04.023Z,101412.75
2023-05-04T03:42:32.585Z,101415.75
2023-05-04T03:45:03.738Z,101420.34
2023-05-04T03:47:32.806Z,101420.97
2023-05-04T03:50:01.214Z,101429.91
2023-05-04T03:52:29.699Z,101432.56
2023-05-04T03:54:58.048Z,101433.66
2023-05-04T03:57:27.856Z,101426.50
2023-05-04T03:59:57.995Z,101427.84
2023-05-04T04:02:27.632Z,101433.50
2023-05-04T04:04:56.192Z,101432.13
2023-05-04T04:07:25.017Z,101416.91
2023-05-04T04:09:53.650Z,101433.94
2023-05-04T04:12:22.144Z,101432.13
2023-05-04T04:14:52.546Z,101432.13
2023-05-04T04:17:21.284Z,101434.16
2023-05-04T04:19:49.617Z,101427.97
2023-05-04T04:22:18.036Z,101429.03
2023-05-04T04:24:46.432Z,101433.75
2023-05-04T04:27:14.862Z,101430.44
2023-05-04T04:29:44.231Z,101430.56
2023-05-04T04:32:14.708Z,101426.09
2023-05-04T04:34:43.491Z,101433.97
2023-05-04T04:37:12.044Z,101434.47
2023-05-04T04:39:40.600Z,101438.00
2023-05-04T04:42:09.017Z,101440.88
2023-05-04T04:44:37.748Z,101433.63
2023-05-04T04:47:06.785Z,101444.38
2023-05-04T04:49:36.604Z,101448.84
2023-05-04T04:52:05.188Z,101452.38
2023-05-04T04:54:34.029Z,101451.41
2023-05-04T04:57:03.528Z,101452.25
2023-05-04T04:59:32.112Z,101436.34
2023-05-04T05:02:00.731Z,101449.81
2023-05-04T05:04:29.892Z,101448.97
2023-05-04T05:07:00.718Z,101453.34
2023-05-04T05:09:29.162Z,101454.38
2023-05-04T05:11:57.505Z,101463.75
2023-05-04T05:14:26.167Z,101467.38
2023-05-04T05:16:54.687Z,101464.59
2023-05-04T05:19:23.211Z,101461.94
2023-05-04T05:21:51.710Z,101444.28
2023-05-04T05:24:21.616Z,101430.00
2023-05-04T05:26:50.027Z,101380.81
2023-05-04T05:29:18.374Z,101481.78
2023-05-04T05:31:46.976Z,101477.06
2023-05-04T05:34:15.356Z,101481.97
2023-05-04T05:36:44.716Z,101484.66
2023-05-04T05:39:13.281Z,101477.25
2023-05-04T05:41:43.534Z,101477.44
2023-05-04T05:44:13.176Z,101481.88
2023-05-04T05:46:41.822Z,101477.47
2023-05-04T05:49:11.591Z,101475.66
2023-05-04T05:51:40.129Z,101491.84
2023-05-04T05:54:08.501Z,101494.38
2023-05-04T05:56:36.862Z,101486.31
2023-05-04T05:59:06.703Z,101494.91
2023-05-04T06:01:35.088Z,101487.97
2023-05-04T06:04:04.354Z,101495.94
2023-05-04T06:06:32.952Z,101489.56
2023-05-04T06:09:01.609Z,101483.31
2023-05-04T06:11:30.206Z,101497.03
2023-05-04T06:13:58.732Z,101490.69
2023-05-04T06:16:28.543Z,101485.94
2023-05-04T06:18:57.276Z,101491.72
2023-05-04T06:21:26.050Z,101489.91
2023-05-04T06:23:54.490Z,101489.06
2023-05-04T06:26:23.715Z,101483.25
2023-05-04T06:28:52.162Z,101491.47
2023-05-04T06:31:20.634Z,101486.78
2023-05-04T06:33:50.565Z,101491.66
2023-05-04T06:36:19.128Z,101486.97
2023-05-04T06:38:47.592Z,101489.03
2023-05-04T06:41:16.058Z,101488.19
2023-05-04T06:43:44.680Z,101486.13
2023-05-04T06:46:13.297Z,101489.81
2023-05-04T06:48:41.751Z,101481.13
2023-05-04T06:51:11.542Z,101478.41
2023-05-04T06:53:39.958Z,101482.38
2023-05-04T06:56:09.023Z,101477.75
2023-05-04T06:58:37.318Z,101486.38
2023-05-04T07:01:09.301Z,101480.94
2023-05-04T07:03:39.088Z,101477.13
2023-05-04T07:06:08.786Z,101376.81
2023-05-04T07:08:38.751Z,101489.53
2023-05-04T07:11:07.249Z,101490.47
2023-05-04T07:13:35.632Z,101492.94
2023-05-04T07:16:04.169Z,101504.34
2023-05-04T07:18:32.634Z,101503.41
2023-05-04T07:21:16.042Z,101495.25
2023-05-04T07:23:46.583Z,101500.84
2023-05-04T07:26:14.983Z,101509.09
2023-05-04T07:28:44.502Z,101507.81
2023-05-04T07:31:14.472Z,101507.06
2023-05-04T07:33:42.929Z,101512.09
2023-05-04T07:36:11.396Z,101513.84
2023-05-04T07:38:39.914Z,101514.50
2023-05-04T07:41:10.486Z,101509.72
2023-05-04T07:43:38.975Z,101518.16
2023-05-04T07:46:07.497Z,101518.38
2023-05-04T07:48:35.876Z,101523.03
2023-05-04T07:51:04.553Z,101516.97
2023-05-04T07:53:32.957Z,101524.91
2023-05-04T07:56:11.418Z,101523.69
2023-05-04T07:58:39.865Z,101528.47
2023-05-04T08:01:09.302Z,101520.88
2023-05-04T08:03:37.793Z,101519.41
2023-05-04T08:06:06.365Z,101518.13
2023-05-04T08:08:34.849Z,101514.97
2023-05-04T08:11:18.460Z,101513.00
2023-05-04T08:13:50.773Z,101515.28
2023-05-04T08:16:19.237Z,101524.28
2023-05-04T08:18:47.719Z,101513.38
2023-05-04T08:21:16.170Z,101512.75
2023-05-04T08:23:44.593Z,101518.19
2023-05-04T08:26:12.960Z,101520.63
2023-05-04T08:28:41.817Z,101512.84
2023-05-04T08:31:11.861Z,101510.63
2023-05-04T08:33:40.298Z,101487.13
2023-05-04T08:36:10.172Z,101513.44
2023-05-04T08:38:38.788Z,101517.84
2023-05-04T08:41:07.761Z,101509.22
2023-05-04T08:43:37.542Z,101475.16
2023-05-04T08:46:07.649Z,101514.94
2023-05-04T08:48:38.291Z,101517.25
2023-05-04T08:51:08.369Z,101511.06
2023-05-04T08:53:38.989Z,101510.25
2023-05-04T08:56:10.189Z,101505.50
2023-05-04T08:58:40.191Z,101511.19
2023-05-04T09:01:09.291Z,101516.78
2023-05-04T09:03:39.586Z,101517.69
2023-05-04T09:06:09.478Z,101516.66
2023-05-04T09:08:37.890Z,101517.13
2023-05-04T09:11:06.458Z,101519.63
2023-05-04T09:13:35.666Z,101519.63
2023-05-04T09:16:05.142Z,101510.84
2023-05-04T09:18:42.361Z,101524.56
2023-05-04T09:21:12.132Z,101517.22
2023-05-04T09:23:48.255Z,101483.41
2023-05-04T09:26:17.060Z,101522.31
2023-05-04T09:28:45.387Z,101517.72
2023-05-04T09:31:15.809Z,101516.47
2023-05-04T09:33:45.628Z,101513.78
2023-05-04T09:36:15.777Z,101500.56
2023-05-04T09:38:44.491Z,101498.41
2023-05-04T09:41:12.976Z,101512.88
2023-05-04T09:43:42.187Z,101508.22
2023-05-04T09:46:17.551Z,101502.97
2023-05-04T09:48:55.299Z,101503.34
2023-05-04T09:51:25.197Z,101502.94
2023-05-04T09:53:54.061Z,101508.75
2023-05-04T09:56:33.889Z,101507.25
2023-05-04T09:59:02.835Z,101507.84
2023-05-04T10:01:31.800Z,101509.75
2023-05-04T10:04:03.068Z,101510.59
2023-05-04T10:06:31.906Z,101471.19
2023-05-04T10:09:01.463Z,101506.16
2023-05-04T10:11:30.665Z,101507.25
2023-05-04T10:14:00.443Z,101486.47
2023-05-04T10:16:39.758Z,101370.38
2023-05-04T10:19:34.987Z,101502.72
2023-05-04T10:22:15.706Z,101488.78
2023-05-04T10:25:23.991Z,101485.66
2023-05-04T10:28:06.278Z,101470.72
2023-05-04T10:30:35.050Z,101491.63
2023-05-04T10:33:03.893Z,101497.47
2023-05-04T10:35:33.917Z,101488.19
2023-05-04T10:38:02.464Z,101495.50
2023-05-04T10:40:36.671Z,101491.47
2023-05-04T10:43:05.319Z,101489.00
2023-05-04T10:45:37.894Z,101492.03
2023-05-04T10:48:08.091Z,101494.94
2023-05-04T10:50:45.065Z,101488.75
2023-05-04T10:53:13.786Z,101486.59
2023-05-04T10:55:43.462Z,101485.13
2023-05-04T10:58:15.008Z,101488.69
2023-05-04T11:00:45.497Z,101483.72
2023-05-04T11:03:14.528Z,101490.41
2023-05-04T11:05:46.576Z,101490.88
2023-05-04T11:08:19.577Z,101483.03
2023-05-04T11:10:48.904Z,101470.16
2023-05-04T11:13:17.598Z,101479.53
2023-05-04T11:15:49.923Z,101475.19
2023-05-04T11:18:28.211Z,101477.41
2023-05-04T11:20:58.734Z,101449.38
2023-05-04T11:23:28.498Z,101478.97
2023-05-04T11:25:57.470Z,101481.81
2023-05-04T11:28:33.727Z,101482.06
2023-05-04T11:31:02.501Z,101478.41
2023-05-04T11:33:31.966Z,101473.84
2023-05-04T11:36:02.696Z,101473.00
2023-05-04T11:38:31.361Z,101478.41
2023-05-04T11:40:59.942Z,101480.09
2023-05-04T11:43:28.528Z,101477.56
2023-05-04T11:45:59.930Z,101469.13
2023-05-04T11:48:29.316Z,101465.28
2023-05-04T11:50:58.094Z,101471.97
2023-05-04T11:53:28.770Z,101465.06
2023-05-04T11:56:03.527Z,101462.34
2023-05-04T11:58:31.958Z,101458.41
2023-05-04T12:01:00.754Z,101462.97
2023-05-04T12:03:43.854Z,101462.06
2023-05-04T12:06:20.307Z,101456.22
2023-05-04T12:08:50.146Z,101443.94
2023-05-04T12:11:21.795Z,101465.34
2023-05-04T12:14:03.158Z,101459.09
2023-05-04T12:16:31.823Z,101454.22
2023-05-04T12:19:05.407Z,101461.47
2023-05-04T12:21:34.515Z,101444.41
2023-05-04T12:24:05.148Z,101444.94
2023-05-04T12:26:33.803Z,101444.63
2023-05-04T12:29:02.156Z,101444.19
2023-05-04T12:31:30.820Z,101441.47
2023-05-04T12:33:59.330Z,101450.16
2023-05-04T12:36:27.861Z,101451.25
2023-05-04T12:38:56.606Z,101443.19
2023-05-04T12:41:27.934Z,101449.59
2023-05-04T12:43:56.367Z,101441.50
2023-05-04T12:46:24.762Z,101438.41
2023-05-04T12:48:53.199Z,101442.81
2023-05-04T12:51:21.592Z,101436.97
2023-05-04T12:53:50.067Z,101428.13
2023-05-04T12:56:18.399Z,101435.06
2023-05-04T12:58:48.195Z,101425.00
2023-05-04T13:01:16.939Z,101421.94
2023-05-04T13:03:45.491Z,101425.13
2023-05-04T13:06:14.342Z,101430.25
2023-05-04T13:08:44.560Z,101429.78
2023-05-04T13:11:13.000Z,101424.31
2023-05-04T13:13:41.547Z,101421.03
2023-05-04T13:16:11.783Z,101419.59
2023-05-04T13:18:40.513Z,101420.72
2023-05-04T13:21:08.912Z,101423.47
2023-05-04T13:23:37.279Z,101415.34
2023-05-04T13:26:06.529Z,101412.53
2023-05-04T13:28:35.653Z,101417.56
2023-05-04T13:31:05.767Z,101418.66
2023-05-04T13:33:38.831Z,101425.94
2023-05-04T13:36:08.304Z,101414.84
2023-05-04T13:38:36.855Z,101418.50
2023-05-04T13:41:06.381Z,101418.84
2023-05-04T13:43:34.810Z,101408.81
2023-05-04T13:46:04.742Z,101403.72
2023-05-04T13:48:34.249Z,101414.91
2023-05-04T13:51:05.785Z,101408.16
2023-05-04T13:53:34.167Z,101402.91
2023-05-04T13:56:02.983Z,101400.59
2023-05-04T13:58:31.404Z,101393.44
2023-05-04T14:01:00.661Z,101387.03
2023-05-04T14:03:29.850Z,101391.31
2023-05-04T14:05:58.304Z,101387.78
2023-05-04T14:08:28.448Z,101390.38
2023-05-04T14:10:56.882Z,101388.69
2023-05-04T14:13:25.192Z,101382.16
2023-05-04T14:15:53.520Z,101374.38
2023-05-04T14:18:22.149Z,101372.59
2023-05-04T14:20:50.732Z,101360.28
2023-05-04T14:23:19.135Z,101373.44
2023-05-04T14:25:52.910Z,101369.47
2023-05-04T14:28:21.312Z,101370.16
2023-05-04T14:30:49.696Z,101365.28
2023-05-04T14:33:18.105Z,101363.84
2023-05-04T14:35:48.211Z,101359.53
2023-05-04T14:38:17.183Z,101361.03
2023-05-04T14:40:47.619Z,101360.09
2023-05-04T14:43:19.145Z,101359.09
2023-05-04T14:45:47.631Z,101362.97
2023-05-04T14:48:15.999Z,101361.31
2023-05-04T14:50:44.448Z,101359.66
2023-05-04T14:53:12.879Z,101371.28
2023-05-04T14:55:42.090Z,101362.00
2023-05-04T14:58:10.745Z,101369.09
2023-05-04T15:00:40.568Z,101356.63
2023-05-04T15:03:09.367Z,101357.53
2023-05-04T15:05:38.244Z,101361.78
2023-05-04T15:08:07.108Z,101365.28
2023-05-04T15:10:35.948Z,101356.50
2023-05-04T15:13:04.493Z,101362.25
2023-05-04T15:15:33.120Z,101361.25
2023-05-04T15:18:02.977Z,101355.78
2023-05-04T15:20:31.405Z,101365.44
2023-05-04T15:23:00.289Z,101368.84
2023-05-04T15:25:28.763Z,101362.53
2023-05-04T15:27:57.133Z,101365.97
2023-05-04T15:30:25.508Z,101363.22
2023-05-04T15:32:54.033Z,101366.66
2023-05-04T15:35:24.063Z,101365.38
2023-05-04T15:37:52.919Z,101361.22
2023-05-04T15:40:21.388Z,101360.69
2023-05-04T15:42:49.759Z,101358.56
2023-05-04T15:45:18.518Z,101366.38
2023-05-04T15:47:47.070Z,101350.59
2023-05-04T15:50:15.605Z,101366.06
2023-05-04T15:52:45.533Z,101357.03
2023-05-04T15:55:25.337Z,101358.88
2023-05-04T15:57:55.151Z,101356.38
2023-05-04T16:00:24.012Z,101358.88
2023-05-04T16:02:52.733Z,101358.09
2023-05-04T16:05:21.664Z,101357.72
2023-05-04T16:07:52.341Z,101363.25
2023-05-04T16:10:21.017Z,101362.63
2023-05-04T16:12:50.556Z,101367.69
2023-05-04T16:15:19.203Z,101360.59
2023-05-04T16:17:47.633Z,101364.56
2023-05-04T16:20:16.232Z,101361.59
2023-05-04T16:22:44.519Z,101360.59
2023-05-04T16:25:14.355Z,101337.41
2023-05-04T16:27:43.275Z,101362.19
2023-05-04T16:30:12.839Z,101351.69
2023-05-04T16:32:41.236Z,101351.06
2023-05-04T16:35:10.314Z,101356.13
2023-05-04T16:37:38.995Z,101350.22
2023-05-04T16:40:15.448Z,101346.50
2023-05-04T16:42:44.374Z,101348.66
2023-05-04T16:45:14.832Z,101352.63
2023-05-04T16:47:44.056Z,101358.94
2023-05-04T16:50:13.998Z,101359.78
2023-05-04T16:52:42.776Z,101363.38
2023-05-04T16:55:12.561Z,101363.41
2023-05-04T16:57:42.740Z,101365.75
2023-05-04T17:00:13.558Z,101362.03
2023-05-04T17:02:42.370Z,101362.03
2023-05-04T17:05:11.490Z,101363.97
2023-05-04T17:07:43.465Z,101365.84
2023-05-04T17:10:12.980Z,101323.31
2023-05-04T17:12:43.126Z,101363.53
2023-05-04T17:15:13.158Z,101364.84
2023-05-04T17:17:41.794Z,101361.91
2023-05-04T17:20:14.924Z,101371.97
2023-05-04T17:22:44.426Z,101366.72
2023-05-04T17:25:13.505Z,101360.25
2023-05-04T17:27:44.020Z,101364.03
2023-05-04T17:30:13.836Z,101363.19
2023-05-04T17:32:42.245Z,101370.50
2023-05-04T17:35:20.930Z,101376.78
2023-05-04T17:37:57.584Z,101367.13
2023-05-04T17:40:27.607Z,101337.53
2023-05-04T17:43:00.319Z,101373.41
2023-05-04T17:45:28.929Z,101373.81
2023-05-04T17:47:57.355Z,101385.53
2023-05-04T17:50:26.186Z,101382.97
2023-05-04T17:52:55.170Z,101385.06
2023-05-04T17:55:25.069Z,101378.56
2023-05-04T17:57:53.922Z,101381.25
2023-05-04T18:00:24.337Z,101385.59
2023-05-04T18:02:52.874Z,101383.66
2023-05-04T18:05:21.737Z,101397.44
2023-05-04T18:07:50.146Z,101397.16
2023-05-04T18:10:18.640Z,101397.53
2023-05-04T18:12:47.292Z,101393.28
2023-05-04T18:15:17.334Z,101399.13
2023-05-04T18:17:48.743Z,101406.81
2023-05-04T18:20:17.412Z,101411.75
2023-05-04T18:22:46.723Z,101412.03
2023-05-04T18:25:15.457Z,101407.81
2023-05-04T18:27:43.802Z,101404.78
2023-05-04T18:30:12.772Z,101414.94
2023-05-04T18:32:41.202Z,101412.19
2023-05-04T18:35:11.754Z,101420.91
2023-05-04T18:37:40.176Z,101423.56
2023-05-04T18:40:09.914Z,101423.47
2023-05-04T18:42:38.496Z,101427.56
2023-05-04T18:45:08.211Z,101427.56
2023-05-04T18:47:36.685Z,101426.63
2023-05-04T18:50:05.689Z,101431.16
2023-05-04T18:52:35.812Z,101432.50
2023-05-04T18:55:04.152Z,101446.28
2023-05-04T18:57:32.513Z,101433.66
2023-05-04T19:00:00.908Z,101437.44
2023-05-04T19:02:30.106Z,101435.63
2023-05-04T19:04:58.680Z,101437.84
2023-05-04T19:07:27.136Z,101440.59
2023-05-04T19:09:58.928Z,101442.69
2023-05-04T19:12:27.523Z,101446.16
2023-05-04T19:14:55.991Z,101447.44
2023-05-04T19:17:24.637Z,101448.72
2023-05-04T19:19:53.294Z,101453.22
2023-05-04T19:22:21.717Z,101458.66
2023-05-04T19:24:52.049Z,101451.28
2023-05-04T19:27:22.259Z,101459.28
2023-05-04T19:29:50.929Z,101467.22
2023-05-04T19:32:24.414Z,101465.72
2023-05-04T19:34:53.877Z,101472.47
2023-05-04T19:37:22.315Z,101475.84
2023-05-04T19:39:50.908Z,101479.06
2023-05-04T19:42:19.425Z,101477.38
2023-05-04T19:44:50.248Z,101489.69
2023-05-04T19:47:18.993Z,101489.63
2023-05-04T19:49:48.669Z,101481.19
2023-05-04T19:52:17.364Z,101488.94
2023-05-04T19:54:48.457Z,101482.50
2023-05-04T19:57:17.131Z,101489.56
2023-05-04T19:59:46.991Z,101490.19
2023-05-04T20:02:17.503Z,101486.75
2023-05-04T20:04:46.032Z,101488.75
2023-05-04T20:07:14.385Z,101492.09
2023-05-04T20:09:42.914Z,101489.34
2023-05-04T20:12:12.736Z,101490.31
2023-05-04T20:14:43.852Z,101486.19
2023-05-04T20:17:12.321Z,101492.53
2023-05-04T20:19:43.241Z,101494.66
2023-05-04T20:22:11.697Z,101494.22
2023-05-04T20:24:40.899Z,101493.78
2023-05-04T20:27:11.377Z,101491.88
2023-05-04T20:29:39.843Z,101494.16
2023-05-04T20:32:09.197Z,101497.03
2023-05-04T20:34:39.728Z,101450.28
2023-05-04T20:37:09.640Z,101496.03
2023-05-04T20:39:38.035Z,101494.25
2023-05-04T20:42:06.781Z,101501.97
2023-05-04T20:44:36.262Z,101499.84
2023-05-04T20:47:05.697Z,101499.75
2023-05-04T20:49:34.198Z,101497.06
2023-05-04T20:52:03.079Z,101487.63
2023-05-04T20:54:32.940Z,101496.69
2023-05-04T20:57:01.563Z,101500.31
2023-05-04T20:59:30.118Z,101497.66
2023-05-04T21:01:58.708Z,101486.56
2023-05-04T21:04:27.173Z,101489.72
2023-05-04T21:06:55.717Z,101488.47
2023-05-04T21:09:24.183Z,101485.94
2023-05-04T21:11:55.063Z,101485.06
2023-05-04T21:14:23.552Z,101486.66
2023-05-04T21:16:51.887Z,101481.28
2023-05-04T21:19:20.723Z,101476.50
2023-05-04T21:21:49.141Z,101481.34
2023-05-04T21:24:17.598Z,101473.16
2023-05-04T21:26:46.403Z,101476.88
2023-05-04T21:29:16.536Z,101474.91
2023-05-04T21:31:45.074Z,101478.50
2023-05-04T21:34:13.761Z,101477.06
2023-05-04T21:36:44.589Z,101485.56
2023-05-04T21:39:13.811Z,101489.66
2023-05-04T21:41:42.191Z,101480.19
2023-05-04T21:44:10.596Z,101480.06
2023-05-04T21:46:41.424Z,101474.94
2023-05-04T21:49:09.877Z,101487.41
2023-05-04T21:51:38.298Z,101478.69
2023-05-04T21:54:06.926Z,101477.56
2023-05-04T21:56:35.325Z,101477.56
2023-05-04T21:59:04.028Z,101485.75
2023-05-04T22:01:32.990Z,101478.06
2023-05-04T22:04:03.685Z,101489.94
2023-05-04T22:06:32.235Z,101484.63
2023-05-04T22:09:00.749Z,101486.19
2023-05-04T22:11:29.552Z,101486.88
2023-05-04T22:13:58.022Z,101480.69
2023-05-04T22:16:26.511Z,101483.09
2023-05-04T22:18:55.028Z,101488.19
2023-05-04T22:21:24.895Z,101478.44
2023-05-04T22:23:53.305Z,101492.28
2023-05-04T22:26:21.810Z,101487.75
2023-05-04T22:28:50.205Z,101493.53
2023-05-04T22:31:18.718Z,101485.91
2023-05-04T22:33:47.250Z,101490.00
2023-05-04T22:36:15.694Z,101487.88
2023-05-04T22:38:45.452Z,101489.41
2023-05-04T22:41:14.863Z,101489.50
2023-05-04T22:43:43.363Z,101488.34
2023-05-04T22:46:15.921Z,101487.19
2023-05-04T22:48:44.494Z,101490.69
2023-05-04T22:51:13.320Z,101493.94
2023-05-04T22:53:41.871Z,101496.16
2023-05-04T22:56:12.689Z,101498.97
2023-05-04T22:58:41.066Z,101501.53
2023-05-04T23:01:11.737Z,101503.22
2023-05-04T23:03:40.597Z,101443.63
2023-05-04T23:06:09.899Z,101498.44
2023-05-04T23:08:38.818Z,101497.31
2023-05-04T23:11:07.296Z,101494.59
2023-05-04T23:13:37.706Z,101496.97
2023-05-04T23:16:07.592Z,101500.31
2023-05-04T23:18:36.059Z,101494.22
2023-05-04T23:21:04.547Z,101498.75
2023-05-04T23:23:33.009Z,101499.03
2023-05-04T23:26:01.503Z,101500.28
2023-05-04T23:28:29.877Z,101501.84
2023-05-04T23:30:59.797Z,101498.75
2023-05-04T23:33:28.267Z,101498.34
2023-05-04T23:35:56.988Z,101491.16
2023-05-04T23:38:26.424Z,101480.81
2023-05-04T23:40:55.158Z,101472.97
2023-05-04T23:43:23.838Z,101497.34
2023-05-04T23:45:59.638Z,101488.88
2023-05-04T23:48:29.808Z,101470.59
2023-05-04T23:50:59.070Z,101471.53
2023-05-04T23:53:27.479Z,101496.00
2023-05-04T23:56:02.712Z,101485.28
2023-05-04T23:58:33.155Z,101482.75
